sensor_id;sensor_type;location;lat;lon;timestamp;pressure;altitude;pressure_sealevel;temperature;humidity
69351;BME280;57106;51.446;-2.606;2023-03-16T00:01:43;100743.47;;;11.09;81.72
69351;BME280;57106;51.446;-2.606;2023-03-16T00:04:08;100740.51;;;11.24;81.40
69351;BME280;57106;51.446;-2.606;2023-03-16T00:08:59;100739.47;;;11.20;81.34
69351;BME280;57106;51.446;-2.606;2023-03-16T00:13:51;100734.46;;;11.17;81.22
69351;BME280;57106;51.446;-2.606;2023-03-16T00:16:16;100726.24;;;11.22;81.10
69351;BME280;57106;51.446;-2.606;2023-03-16T00:18:42;100722.04;;;11.26;81.05
69351;BME280;57106;51.446;-2.606;2023-03-16T00:21:08;100720.20;;;11.22;80.64
69351;BME280;57106;51.446;-2.606;2023-03-16T00:23:34;100718.86;;;11.36;80.43
69351;BME280;57106;51.446;-2.606;2023-03-16T00:25:59;100714.03;;;11.16;80.91
69351;BME280;57106;51.446;-2.606;2023-03-16T00:28:26;100715.63;;;11.20;80.75
69351;BME280;57106;51.446;-2.606;2023-03-16T00:30:49;100712.12;;;11.23;80.69
69351;BME280;57106;51.446;-2.606;2023-03-16T00:33:15;100703.14;;;11.24;80.78
69351;BME280;57106;51.446;-2.606;2023-03-16T00:35:41;100700.26;;;11.02;81.69
69351;BME280;57106;51.446;-2.606;2023-03-16T00:38:06;100695.57;;;11.19;81.42
69351;BME280;57106;51.446;-2.606;2023-03-16T00:40:31;100693.10;;;11.13;81.13
69351;BME280;57106;51.446;-2.606;2023-03-16T00:42:57;100689.35;;;11.03;81.78
69351;BME280;57106;51.446;-2.606;2023-03-16T00:45:23;100689.17;;;11.01;81.72
69351;BME280;57106;51.446;-2.606;2023-03-16T00:47:48;100688.80;;;11.04;81.63
69351;BME280;57106;51.446;-2.606;2023-03-16T00:50:14;100691.83;;;11.14;81.28
69351;BME280;57106;51.446;-2.606;2023-03-16T00:52:39;100683.35;;;10.92;81.68
69351;BME280;57106;51.446;-2.606;2023-03-16T00:55:05;100680.02;;;11.03;81.63
69351;BME280;57106;51.446;-2.606;2023-03-16T00:57:30;100676.46;;;11.00;81.50
69351;BME280;57106;51.446;-2.606;2023-03-16T00:59:56;100675.04;;;11.20;81.29
69351;BME280;57106;51.446;-2.606;2023-03-16T01:02:21;100677.10;;;11.21;80.61
69351;BME280;57106;51.446;-2.606;2023-03-16T01:04:47;100679.34;;;11.15;80.78
69351;BME280;57106;51.446;-2.606;2023-03-16T01:07:13;100677.80;;;11.06;81.06
69351;BME280;57106;51.446;-2.606;2023-03-16T01:09:38;100674.35;;;10.98;81.06
69351;BME280;57106;51.446;-2.606;2023-03-16T01:12:04;100664.13;;;11.23;80.24
69351;BME280;57106;51.446;-2.606;2023-03-16T01:14:29;100666.83;;;11.13;80.65
69351;BME280;57106;51.446;-2.606;2023-03-16T01:16:54;100666.85;;;11.09;80.99
69351;BME280;57106;51.446;-2.606;2023-03-16T01:19:20;100660.25;;;10.97;81.18
69351;BME280;57106;51.446;-2.606;2023-03-16T01:21:45;100653.65;;;10.90;81.07
69351;BME280;57106;51.446;-2.606;2023-03-16T01:24:11;100648.46;;;11.00;81.10
69351;BME280;57106;51.446;-2.606;2023-03-16T01:26:37;100649.90;;;11.19;80.59
69351;BME280;57106;51.446;-2.606;2023-03-16T01:29:02;100649.36;;;11.16;79.99
69351;BME280;57106;51.446;-2.606;2023-03-16T01:31:28;100645.65;;;11.22;80.09
69351;BME280;57106;51.446;-2.606;2023-03-16T01:33:53;100651.45;;;11.22;79.80
69351;BME280;57106;51.446;-2.606;2023-03-16T01:36:19;100653.00;;;11.15;80.04
69351;BME280;57106;51.446;-2.606;2023-03-16T01:38:45;100645.54;;;11.11;80.12
69351;BME280;57106;51.446;-2.606;2023-03-16T01:41:10;100639.47;;;11.12;80.36
69351;BME280;57106;51.446;-2.606;2023-03-16T01:43:37;100638.27;;;11.25;79.78
69351;BME280;57106;51.446;-2.606;2023-03-16T01:46:17;100634.44;;;11.20;79.83
69351;BME280;57106;51.446;-2.606;2023-03-16T01:48:26;100626.65;;;11.18;79.98
69351;BME280;57106;51.446;-2.606;2023-03-16T01:50:52;100629.14;;;11.00;80.59
69351;BME280;57106;51.446;-2.606;2023-03-16T01:53:18;100628.03;;;11.21;80.19
69351;BME280;57106;51.446;-2.606;2023-03-16T01:55:43;100631.26;;;11.21;79.79
69351;BME280;57106;51.446;-2.606;2023-03-16T01:58:09;100627.37;;;11.18;80.08
69351;BME280;57106;51.446;-2.606;2023-03-16T02:00:34;100625.42;;;11.13;80.14
69351;BME280;57106;51.446;-2.606;2023-03-16T02:03:04;100623.18;;;10.93;80.88
69351;BME280;57106;51.446;-2.606;2023-03-16T02:05:29;100613.22;;;11.14;80.20
69351;BME280;57106;51.446;-2.606;2023-03-16T02:07:52;100607.56;;;11.03;80.51
69351;BME280;57106;51.446;-2.606;2023-03-16T02:10:19;100615.32;;;11.01;80.44
69351;BME280;57106;51.446;-2.606;2023-03-16T02:12:42;100606.94;;;11.06;80.08
69351;BME280;57106;51.446;-2.606;2023-03-16T02:15:08;100609.30;;;11.17;79.91
69351;BME280;57106;51.446;-2.606;2023-03-16T02:17:33;100606.00;;;10.95;80.46
69351;BME280;57106;51.446;-2.606;2023-03-16T02:20:07;100603.67;;;10.89;80.76
69351;BME280;57106;51.446;-2.606;2023-03-16T02:22:24;100604.50;;;11.01;80.32
69351;BME280;57106;51.446;-2.606;2023-03-16T02:24:50;100598.49;;;11.08;80.16
69351;BME280;57106;51.446;-2.606;2023-03-16T02:27:20;100594.94;;;11.06;80.38
69351;BME280;57106;51.446;-2.606;2023-03-16T02:29:54;100594.79;;;11.17;79.82
69351;BME280;57106;51.446;-2.606;2023-03-16T02:32:06;100597.77;;;11.14;79.81
69351;BME280;57106;51.446;-2.606;2023-03-16T02:34:32;100598.91;;;11.18;79.71
69351;BME280;57106;51.446;-2.606;2023-03-16T02:36:57;100599.23;;;11.13;79.70
69351;BME280;57106;51.446;-2.606;2023-03-16T02:39:23;100591.08;;;11.22;79.30
69351;BME280;57106;51.446;-2.606;2023-03-16T02:41:49;100592.25;;;11.20;78.98
69351;BME280;57106;51.446;-2.606;2023-03-16T02:44:16;100585.98;;;11.06;79.66
69351;BME280;57106;51.446;-2.606;2023-03-16T02:46:40;100585.62;;;10.91;80.11
69351;BME280;57106;51.446;-2.606;2023-03-16T02:49:09;100585.80;;;11.01;80.22
69351;BME280;57106;51.446;-2.606;2023-03-16T02:51:31;100589.00;;;11.02;80.17
69351;BME280;57106;51.446;-2.606;2023-03-16T02:53:56;100585.43;;;11.12;79.92
69351;BME280;57106;51.446;-2.606;2023-03-16T02:56:21;100585.76;;;11.15;79.92
69351;BME280;57106;51.446;-2.606;2023-03-16T02:58:47;100589.70;;;10.96;80.66
69351;BME280;57106;51.446;-2.606;2023-03-16T03:01:13;100583.94;;;10.89;81.42
69351;BME280;57106;51.446;-2.606;2023-03-16T03:03:38;100580.35;;;10.94;81.77
69351;BME280;57106;51.446;-2.606;2023-03-16T03:06:04;100578.33;;;11.01;82.29
69351;BME280;57106;51.446;-2.606;2023-03-16T03:08:29;100580.37;;;11.02;82.61
69351;BME280;57106;51.446;-2.606;2023-03-16T03:10:55;100576.79;;;11.13;82.43
69351;BME280;57106;51.446;-2.606;2023-03-16T03:13:20;100577.07;;;11.02;82.82
69351;BME280;57106;51.446;-2.606;2023-03-16T03:15:46;100571.76;;;10.90;83.34
69351;BME280;57106;51.446;-2.606;2023-03-16T03:18:11;100571.28;;;10.80;83.96
69351;BME280;57106;51.446;-2.606;2023-03-16T03:20:39;100564.67;;;10.94;83.89
69351;BME280;57106;51.446;-2.606;2023-03-16T03:23:02;100562.85;;;10.92;83.95
69351;BME280;57106;51.446;-2.606;2023-03-16T03:25:34;100563.96;;;11.06;83.54
69351;BME280;57106;51.446;-2.606;2023-03-16T03:27:54;100533.47;;;10.85;83.99
69351;BME280;57106;51.446;-2.606;2023-03-16T03:30:24;100531.39;;;10.88;84.20
69351;BME280;57106;51.446;-2.606;2023-03-16T03:32:44;100530.47;;;10.85;83.84
69351;BME280;57106;51.446;-2.606;2023-03-16T03:35:13;100534.87;;;10.91;83.79
69351;BME280;57106;51.446;-2.606;2023-03-16T04:28:32;100486.57;;;11.12;80.97
69351;BME280;57106;51.446;-2.606;2023-03-16T04:31:00;100480.35;;;11.12;80.77
69351;BME280;57106;51.446;-2.606;2023-03-16T04:33:23;100480.30;;;11.08;80.69
69351;BME280;57106;51.446;-2.606;2023-03-16T04:35:48;100480.39;;;11.16;80.20
69351;BME280;57106;51.446;-2.606;2023-03-16T04:38:21;100484.85;;;11.25;79.69
69351;BME280;57106;51.446;-2.606;2023-03-16T04:40:39;100481.49;;;11.11;79.95
69351;BME280;57106;51.446;-2.606;2023-03-16T04:43:05;100480.28;;;10.99;79.91
69351;BME280;57106;51.446;-2.606;2023-03-16T04:45:31;100483.83;;;11.21;79.83
69351;BME280;57106;51.446;-2.606;2023-03-16T04:47:57;100477.52;;;11.21;79.53
69351;BME280;57106;51.446;-2.606;2023-03-16T04:50:21;100479.94;;;11.14;80.20
69351;BME280;57106;51.446;-2.606;2023-03-16T04:52:47;100484.21;;;11.02;80.87
69351;BME280;57106;51.446;-2.606;2023-03-16T04:55:13;100486.27;;;10.97;81.07
69351;BME280;57106;51.446;-2.606;2023-03-16T04:57:38;100482.28;;;11.01;80.92
69351;BME280;57106;51.446;-2.606;2023-03-16T05:00:05;100475.31;;;11.02;80.88
69351;BME280;57106;51.446;-2.606;2023-03-16T05:02:29;100479.73;;;10.81;81.73
69351;BME280;57106;51.446;-2.606;2023-03-16T05:21:53;100482.72;;;10.96;81.89
69351;BME280;57106;51.446;-2.606;2023-03-16T05:24:19;100483.61;;;10.92;81.81
69351;BME280;57106;51.446;-2.606;2023-03-16T05:26:45;100485.27;;;10.98;81.64
69351;BME280;57106;51.446;-2.606;2023-03-16T05:29:10;100477.26;;;10.88;81.43
69351;BME280;57106;51.446;-2.606;2023-03-16T05:31:36;100478.47;;;10.91;81.04
69351;BME280;57106;51.446;-2.606;2023-03-16T05:34:02;100479.60;;;10.70;81.92
69351;BME280;57106;51.446;-2.606;2023-03-16T05:36:27;100472.44;;;10.85;81.45
69351;BME280;57106;51.446;-2.606;2023-03-16T05:38:53;100462.32;;;10.82;81.21
69351;BME280;57106;51.446;-2.606;2023-03-16T05:41:18;100466.01;;;10.77;81.20
69351;BME280;57106;51.446;-2.606;2023-03-16T05:43:44;100457.97;;;10.86;81.07
69351;BME280;57106;51.446;-2.606;2023-03-16T05:46:09;100449.17;;;10.84;80.93
69351;BME280;57106;51.446;-2.606;2023-03-16T05:48:34;100446.92;;;10.76;80.89
69351;BME280;57106;51.446;-2.606;2023-03-16T05:51:01;100442.11;;;10.86;80.52
69351;BME280;57106;51.446;-2.606;2023-03-16T05:53:26;100433.30;;;10.69;81.00
69351;BME280;57106;51.446;-2.606;2023-03-16T05:55:52;100423.27;;;10.66;81.14
69351;BME280;57106;51.446;-2.606;2023-03-16T05:58:16;100435.08;;;10.98;80.07
69351;BME280;57106;51.446;-2.606;2023-03-16T06:00:42;100439.80;;;10.90;80.21
69351;BME280;57106;51.446;-2.606;2023-03-16T06:03:07;100439.81;;;10.91;80.55
69351;BME280;57106;51.446;-2.606;2023-03-16T06:05:33;100436.46;;;10.94;80.34
69351;BME280;57106;51.446;-2.606;2023-03-16T06:07:59;100436.36;;;10.79;80.52
69351;BME280;57106;51.446;-2.606;2023-03-16T06:10:24;100439.95;;;10.99;80.15
69351;BME280;57106;51.446;-2.606;2023-03-16T06:12:49;100425.70;;;10.99;79.95
69351;BME280;57106;51.446;-2.606;2023-03-16T06:15:15;100423.05;;;11.02;79.96
69351;BME280;57106;51.446;-2.606;2023-03-16T06:17:41;100424.89;;;11.07;79.98
69351;BME280;57106;51.446;-2.606;2023-03-16T06:20:10;100435.88;;;11.19;79.48
69351;BME280;57106;51.446;-2.606;2023-03-16T06:22:32;100435.80;;;11.18;79.25
69351;BME280;57106;51.446;-2.606;2023-03-16T06:24:57;100439.94;;;11.20;79.24
69351;BME280;57106;51.446;-2.606;2023-03-16T06:27:23;100437.03;;;11.01;79.85
69351;BME280;57106;51.446;-2.606;2023-03-16T06:29:48;100445.61;;;10.86;80.26
69351;BME280;57106;51.446;-2.606;2023-03-16T06:32:14;100445.21;;;11.05;79.49
69351;BME280;57106;51.446;-2.606;2023-03-16T06:34:39;100453.01;;;11.12;79.54
69351;BME280;57106;51.446;-2.606;2023-03-16T06:37:05;100455.65;;;11.38;78.58
69351;BME280;57106;51.446;-2.606;2023-03-16T06:39:30;100449.38;;;11.37;78.27
69351;BME280;57106;51.446;-2.606;2023-03-16T06:41:56;100452.02;;;11.29;78.70
69351;BME280;57106;51.446;-2.606;2023-03-16T06:44:22;100450.27;;;11.17;78.94
69351;BME280;57106;51.446;-2.606;2023-03-16T06:46:48;100452.27;;;11.35;78.74
69351;BME280;57106;51.446;-2.606;2023-03-16T06:49:12;100451.44;;;11.39;78.70
69351;BME280;57106;51.446;-2.606;2023-03-16T06:56:30;100457.11;;;11.76;76.88
69351;BME280;57106;51.446;-2.606;2023-03-16T07:03:46;100470.46;;;11.89;76.25
69351;BME280;57106;51.446;-2.606;2023-03-16T07:11:02;100467.70;;;11.70;77.00
69351;BME280;57106;51.446;-2.606;2023-03-16T07:15:54;100472.74;;;11.65;77.63
69351;BME280;57106;51.446;-2.606;2023-03-16T07:18:19;100474.63;;;11.66;77.94
69351;BME280;57106;51.446;-2.606;2023-03-16T07:23:11;100481.16;;;11.84;76.86
69351;BME280;57106;51.446;-2.606;2023-03-16T07:25:36;100473.41;;;11.76;76.93
69351;BME280;57106;51.446;-2.606;2023-03-16T07:54:42;100456.40;;;11.83;76.75
69351;BME280;57106;51.446;-2.606;2023-03-16T08:09:16;100447.00;;;11.73;77.01
69351;BME280;57106;51.446;-2.606;2023-03-16T08:14:06;100447.58;;;11.78;76.63
69351;BME280;57106;51.446;-2.606;2023-03-16T09:19:57;100455.40;;;12.06;73.60
69351;BME280;57106;51.446;-2.606;2023-03-16T09:43:58;100409.89;;;12.17;73.77
69351;BME280;57106;51.446;-2.606;2023-03-16T09:51:15;100399.54;;;12.65;71.92
69351;BME280;57106;51.446;-2.606;2023-03-16T10:22:43;100394.53;;;12.55;72.19
69351;BME280;57106;51.446;-2.606;2023-03-16T10:49:21;100384.36;;;12.67;70.74
69351;BME280;57106;51.446;-2.606;2023-03-16T11:01:29;100367.71;;;12.89;70.14
69351;BME280;57106;51.446;-2.606;2023-03-16T11:03:53;100359.00;;;13.06;69.77
69351;BME280;57106;51.446;-2.606;2023-03-16T11:06:20;100363.92;;;13.05;69.55
69351;BME280;57106;51.446;-2.606;2023-03-16T11:11:09;100364.77;;;13.27;68.75
69351;BME280;57106;51.446;-2.606;2023-03-16T11:13:35;100372.98;;;13.23;69.16
69351;BME280;57106;51.446;-2.606;2023-03-16T11:16:02;100362.10;;;13.22;69.35
69351;BME280;57106;51.446;-2.606;2023-03-16T11:18:28;100354.33;;;13.11;69.57
69351;BME280;57106;51.446;-2.606;2023-03-16T11:20:50;100353.72;;;13.07;70.23
69351;BME280;57106;51.446;-2.606;2023-03-16T11:23:27;100353.17;;;13.14;69.36
69351;BME280;57106;51.446;-2.606;2023-03-16T11:25:45;100354.41;;;13.16;69.60
69351;BME280;57106;51.446;-2.606;2023-03-16T11:28:12;100352.99;;;12.87;70.89
69351;BME280;57106;51.446;-2.606;2023-03-16T11:30:35;100354.44;;;13.09;70.67
69351;BME280;57106;51.446;-2.606;2023-03-16T11:32:57;100342.16;;;13.02;71.01
69351;BME280;57106;51.446;-2.606;2023-03-16T11:35:28;100348.01;;;13.03;69.78
69351;BME280;57106;51.446;-2.606;2023-03-16T11:37:59;100358.36;;;12.96;69.99
69351;BME280;57106;51.446;-2.606;2023-03-16T11:40:28;100355.35;;;12.74;70.18
69351;BME280;57106;51.446;-2.606;2023-03-16T11:42:48;100353.73;;;12.82;70.37
69351;BME280;57106;51.446;-2.606;2023-03-16T11:45:12;100338.98;;;12.91;70.28
69351;BME280;57106;51.446;-2.606;2023-03-16T11:49:58;100356.03;;;12.83;70.17
69351;BME280;57106;51.446;-2.606;2023-03-16T11:52:29;100370.47;;;12.80;70.21
69351;BME280;57106;51.446;-2.606;2023-03-16T11:54:55;100379.53;;;12.96;69.70
69351;BME280;57106;51.446;-2.606;2023-03-16T11:57:25;100368.08;;;12.85;69.76
69351;BME280;57106;51.446;-2.606;2023-03-16T11:59:48;100357.32;;;12.80;69.25
69351;BME280;57106;51.446;-2.606;2023-03-16T12:02:18;100355.31;;;12.88;69.20
69351;BME280;57106;51.446;-2.606;2023-03-16T12:04:38;100351.37;;;12.73;70.47
69351;BME280;57106;51.446;-2.606;2023-03-16T12:07:08;100350.39;;;12.65;69.86
69351;BME280;57106;51.446;-2.606;2023-03-16T12:11:49;100365.51;;;12.53;70.72
69351;BME280;57106;51.446;-2.606;2023-03-16T12:14:16;100366.83;;;12.72;70.01
69351;BME280;57106;51.446;-2.606;2023-03-16T12:16:42;100360.39;;;12.59;70.41
69351;BME280;57106;51.446;-2.606;2023-03-16T12:19:04;100340.31;;;12.60;70.80
69351;BME280;57106;51.446;-2.606;2023-03-16T12:21:29;100336.71;;;12.44;70.65
69351;BME280;57106;51.446;-2.606;2023-03-16T12:23:54;100353.16;;;12.84;69.77
69351;BME280;57106;51.446;-2.606;2023-03-16T12:26:20;100349.19;;;12.97;69.28
69351;BME280;57106;51.446;-2.606;2023-03-16T12:28:44;100344.88;;;12.42;70.86
69351;BME280;57106;51.446;-2.606;2023-03-16T12:31:12;100344.60;;;12.29;72.33
69351;BME280;57106;51.446;-2.606;2023-03-16T12:36:16;100342.31;;;12.51;71.48
69351;BME280;57106;51.446;-2.606;2023-03-16T12:38:34;100338.86;;;12.59;71.69
69351;BME280;57106;51.446;-2.606;2023-03-16T12:40:59;100336.21;;;12.35;72.81
69351;BME280;57106;51.446;-2.606;2023-03-16T12:43:28;100326.68;;;12.10;73.68
69351;BME280;57106;51.446;-2.606;2023-03-16T12:45:46;100330.02;;;12.13;73.93
69351;BME280;57106;51.446;-2.606;2023-03-16T12:48:14;100328.04;;;12.13;73.85
69351;BME280;57106;51.446;-2.606;2023-03-16T12:50:34;100318.77;;;12.31;73.49
69351;BME280;57106;51.446;-2.606;2023-03-16T12:52:58;100316.62;;;12.36;73.19
69351;BME280;57106;51.446;-2.606;2023-03-16T12:55:38;100306.11;;;11.94;73.72
69351;BME280;57106;51.446;-2.606;2023-03-16T12:57:50;100308.98;;;12.19;73.42
69351;BME280;57106;51.446;-2.606;2023-03-16T13:00:16;100303.97;;;12.39;72.73
69351;BME280;57106;51.446;-2.606;2023-03-16T13:02:43;100290.56;;;12.34;73.00
69351;BME280;57106;51.446;-2.606;2023-03-16T13:05:09;100288.70;;;12.52;72.83
69351;BME280;57106;51.446;-2.606;2023-03-16T13:07:32;100294.33;;;12.03;73.88
69351;BME280;57106;51.446;-2.606;2023-03-16T13:10:00;100291.73;;;12.17;74.03
69351;BME280;57106;51.446;-2.606;2023-03-16T13:12:24;100287.57;;;12.28;73.45
69351;BME280;57106;51.446;-2.606;2023-03-16T13:14:48;100296.80;;;11.92;74.92
69351;BME280;57106;51.446;-2.606;2023-03-16T13:17:24;100296.22;;;12.22;74.18
69351;BME280;57106;51.446;-2.606;2023-03-16T13:19:39;100284.81;;;12.12;74.61
69351;BME280;57106;51.446;-2.606;2023-03-16T13:22:18;100296.09;;;12.43;73.93
69351;BME280;57106;51.446;-2.606;2023-03-16T13:24:37;100290.50;;;12.32;73.28
69351;BME280;57106;51.446;-2.606;2023-03-16T13:27:02;100278.11;;;12.10;73.49
69351;BME280;57106;51.446;-2.606;2023-03-16T13:29:23;100280.36;;;12.46;72.88
69351;BME280;57106;51.446;-2.606;2023-03-16T13:31:46;100272.23;;;12.23;73.70
69351;BME280;57106;51.446;-2.606;2023-03-16T13:34:14;100264.79;;;12.01;74.06
69351;BME280;57106;51.446;-2.606;2023-03-16T13:36:37;100260.77;;;11.96;74.59
69351;BME280;57106;51.446;-2.606;2023-03-16T13:39:11;100269.80;;;12.25;73.59
69351;BME280;57106;51.446;-2.606;2023-03-16T13:41:28;100276.47;;;12.37;73.63
69351;BME280;57106;51.446;-2.606;2023-03-16T13:43:54;100281.39;;;12.32;73.70
69351;BME280;57106;51.446;-2.606;2023-03-16T13:46:25;100287.98;;;12.44;73.33
69351;BME280;57106;51.446;-2.606;2023-03-16T13:48:46;100285.48;;;12.30;74.03
69351;BME280;57106;51.446;-2.606;2023-03-16T13:51:15;100281.86;;;12.33;73.68
69351;BME280;57106;51.446;-2.606;2023-03-16T13:53:39;100282.17;;;12.24;74.71
69351;BME280;57106;51.446;-2.606;2023-03-16T13:56:02;100277.00;;;12.43;74.19
69351;BME280;57106;51.446;-2.606;2023-03-16T13:58:29;100272.21;;;12.11;75.59
69351;BME280;57106;51.446;-2.606;2023-03-16T14:00:55;100270.17;;;11.76;75.78
69351;BME280;57106;51.446;-2.606;2023-03-16T14:03:18;100264.84;;;12.15;75.00
69351;BME280;57106;51.446;-2.606;2023-03-16T14:05:43;100244.24;;;12.05;75.91
69351;BME280;57106;51.446;-2.606;2023-03-16T14:08:14;100224.85;;;12.20;75.11
69351;BME280;57106;51.446;-2.606;2023-03-16T14:10:35;100225.05;;;12.49;74.55
69351;BME280;57106;51.446;-2.606;2023-03-16T14:13:07;100235.62;;;12.37;75.06
69351;BME280;57106;51.446;-2.606;2023-03-16T14:15:26;100233.85;;;12.14;75.95
69351;BME280;57106;51.446;-2.606;2023-03-16T14:17:50;100234.38;;;12.59;74.72
69351;BME280;57106;51.446;-2.606;2023-03-16T14:20:18;100242.40;;;12.45;74.58
69351;BME280;57106;51.446;-2.606;2023-03-16T14:22:41;100241.56;;;12.38;75.28
69351;BME280;57106;51.446;-2.606;2023-03-16T14:25:09;100238.22;;;12.34;75.28
69351;BME280;57106;51.446;-2.606;2023-03-16T14:27:41;100223.64;;;12.36;75.49
69351;BME280;57106;51.446;-2.606;2023-03-16T14:29:59;100206.76;;;12.47;75.22
69351;BME280;57106;51.446;-2.606;2023-03-16T14:32:23;100202.08;;;12.41;75.24
69351;BME280;57106;51.446;-2.606;2023-03-16T14:34:48;100209.77;;;12.18;76.28
69351;BME280;57106;51.446;-2.606;2023-03-16T14:37:14;100217.12;;;12.19;76.08
69351;BME280;57106;51.446;-2.606;2023-03-16T14:39:38;100216.17;;;12.11;76.45
69351;BME280;57106;51.446;-2.606;2023-03-16T14:42:05;100219.71;;;12.15;76.56
69351;BME280;57106;51.446;-2.606;2023-03-16T14:44:35;100212.89;;;11.94;77.07
69351;BME280;57106;51.446;-2.606;2023-03-16T14:46:54;100214.32;;;11.94;76.97
69351;BME280;57106;51.446;-2.606;2023-03-16T14:49:24;100220.74;;;11.96;77.54
69351;BME280;57106;51.446;-2.606;2023-03-16T14:51:47;100220.94;;;11.90;78.09
69351;BME280;57106;51.446;-2.606;2023-03-16T14:54:13;100219.07;;;11.96;78.16
69351;BME280;57106;51.446;-2.606;2023-03-16T14:56:37;100220.35;;;11.91;78.00
69351;BME280;57106;51.446;-2.606;2023-03-16T14:59:02;100223.79;;;11.93;77.52
69351;BME280;57106;51.446;-2.606;2023-03-16T15:01:28;100217.96;;;12.05;77.28
69351;BME280;57106;51.446;-2.606;2023-03-16T15:03:53;100209.99;;;12.00;77.69
69351;BME280;57106;51.446;-2.606;2023-03-16T15:06:19;100210.36;;;12.12;77.03
69351;BME280;57106;51.446;-2.606;2023-03-16T15:08:45;100205.83;;;12.01;77.56
69351;BME280;57106;51.446;-2.606;2023-03-16T15:11:10;100195.87;;;12.06;77.15
69351;BME280;57106;51.446;-2.606;2023-03-16T15:13:36;100196.87;;;12.21;76.94
69351;BME280;57106;51.446;-2.606;2023-03-16T15:16:01;100197.14;;;12.29;76.43
69351;BME280;57106;51.446;-2.606;2023-03-16T15:18:26;100192.47;;;12.15;77.06
69351;BME280;57106;51.446;-2.606;2023-03-16T15:20:51;100190.44;;;12.06;77.48
69351;BME280;57106;51.446;-2.606;2023-03-16T15:23:17;100186.87;;;12.20;77.01
69351;BME280;57106;51.446;-2.606;2023-03-16T15:25:44;100187.18;;;12.31;76.36
69351;BME280;57106;51.446;-2.606;2023-03-16T15:28:11;100178.20;;;12.31;76.48
69351;BME280;57106;51.446;-2.606;2023-03-16T15:30:34;100171.44;;;12.23;76.62
69351;BME280;57106;51.446;-2.606;2023-03-16T15:32:58;100166.66;;;12.30;76.43
69351;BME280;57106;51.446;-2.606;2023-03-16T15:35:24;100166.30;;;12.42;76.16
69351;BME280;57106;51.446;-2.606;2023-03-16T15:37:49;100157.01;;;12.56;76.24
69351;BME280;57106;51.446;-2.606;2023-03-16T15:40:18;100160.78;;;12.53;75.42
69351;BME280;57106;51.446;-2.606;2023-03-16T15:42:40;100163.04;;;12.68;75.09
69351;BME280;57106;51.446;-2.606;2023-03-16T15:45:11;100159.37;;;12.38;75.93
69351;BME280;57106;51.446;-2.606;2023-03-16T15:47:31;100154.77;;;12.46;75.64
69351;BME280;57106;51.446;-2.606;2023-03-16T15:50:08;100160.26;;;12.43;76.00
69351;BME280;57106;51.446;-2.606;2023-03-16T15:52:29;100169.72;;;12.44;75.81
69351;BME280;57106;51.446;-2.606;2023-03-16T15:54:48;100164.71;;;12.47;75.59
69351;BME280;57106;51.446;-2.606;2023-03-16T15:57:13;100165.98;;;12.56;75.40
69351;BME280;57106;51.446;-2.606;2023-03-16T15:59:39;100174.06;;;12.51;75.74
69351;BME280;57106;51.446;-2.606;2023-03-16T16:02:19;100173.28;;;12.66;75.35
69351;BME280;57106;51.446;-2.606;2023-03-16T16:04:30;100175.48;;;12.48;75.70
69351;BME280;57106;51.446;-2.606;2023-03-16T16:06:55;100164.32;;;12.62;75.59
69351;BME280;57106;51.446;-2.606;2023-03-16T16:09:21;100170.96;;;12.51;75.88
69351;BME280;57106;51.446;-2.606;2023-03-16T16:11:47;100172.59;;;12.43;76.36
69351;BME280;57106;51.446;-2.606;2023-03-16T16:14:14;100165.84;;;12.49;76.77
69351;BME280;57106;51.446;-2.606;2023-03-16T16:16:38;100164.47;;;12.39;77.19
69351;BME280;57106;51.446;-2.606;2023-03-16T16:19:03;100156.53;;;12.23;78.06
69351;BME280;57106;51.446;-2.606;2023-03-16T16:21:29;100154.35;;;12.15;78.17
69351;BME280;57106;51.446;-2.606;2023-03-16T16:23:54;100153.17;;;12.25;78.40
69351;BME280;57106;51.446;-2.606;2023-03-16T16:26:25;100152.66;;;12.20;78.50
69351;BME280;57106;51.446;-2.606;2023-03-16T16:28:45;100153.32;;;12.30;78.56
69351;BME280;57106;51.446;-2.606;2023-03-16T16:31:12;100152.16;;;12.21;78.51
69351;BME280;57106;51.446;-2.606;2023-03-16T16:33:36;100158.35;;;12.37;78.41
69351;BME280;57106;51.446;-2.606;2023-03-16T16:36:03;100157.77;;;12.30;78.86
69351;BME280;57106;51.446;-2.606;2023-03-16T16:38:27;100154.68;;;12.36;79.05
69351;BME280;57106;51.446;-2.606;2023-03-16T16:40:54;100155.78;;;12.34;79.13
69351;BME280;57106;51.446;-2.606;2023-03-16T16:43:25;100153.67;;;12.24;79.93
69351;BME280;57106;51.446;-2.606;2023-03-16T16:45:47;100153.84;;;12.43;79.65
69351;BME280;57106;51.446;-2.606;2023-03-16T16:48:19;100153.90;;;12.35;80.04
69351;BME280;57106;51.446;-2.606;2023-03-16T16:50:34;100149.61;;;12.53;79.41
69351;BME280;57106;51.446;-2.606;2023-03-16T16:52:59;100145.46;;;12.38;79.84
69351;BME280;57106;51.446;-2.606;2023-03-16T16:55:25;100146.75;;;12.23;79.86
69351;BME280;57106;51.446;-2.606;2023-03-16T16:57:52;100143.69;;;12.30;80.22
69351;BME280;57106;51.446;-2.606;2023-03-16T17:00:19;100140.43;;;12.14;80.87
69351;BME280;57106;51.446;-2.606;2023-03-16T17:02:43;100137.33;;;12.32;80.51
69351;BME280;57106;51.446;-2.606;2023-03-16T17:05:14;100141.62;;;12.34;80.22
69351;BME280;57106;51.446;-2.606;2023-03-16T17:07:32;100137.76;;;12.40;80.12
69351;BME280;57106;51.446;-2.606;2023-03-16T17:09:58;100129.16;;;12.45;79.83
69351;BME280;57106;51.446;-2.606;2023-03-16T17:12:23;100133.34;;;12.44;79.18
69351;BME280;57106;51.446;-2.606;2023-03-16T17:14:49;100142.79;;;12.42;79.40
69351;BME280;57106;51.446;-2.606;2023-03-16T17:17:15;100137.91;;;12.29;79.79
69351;BME280;57106;51.446;-2.606;2023-03-16T17:19:40;100132.16;;;12.34;80.08
69351;BME280;57106;51.446;-2.606;2023-03-16T17:22:16;100129.59;;;12.37;79.99
69351;BME280;57106;51.446;-2.606;2023-03-16T17:24:31;100130.35;;;12.15;80.56
69351;BME280;57106;51.446;-2.606;2023-03-16T17:26:58;100129.15;;;12.25;79.98